Time;durP1;ratioP1;P1;durP2;ratioP2;P2;SDS_P1;SDS_P2;PMS_P1;PMS_P2;Temp;Humidity;BMP_temperature;BMP_pressure;BME280_temperature;BME280_humidity;BME280_pressure;Samples;Min_cycle;Max_cycle;Signal;HPM_P1;HPM_P2
2021/06/12 00:00:49;;;;;;;8.27;7.50;;;23.10;77.70;;;;;;5031474;28;20714;-49
2021/06/12 00:03:16;;;;;;;7.60;6.93;;;23.00;78.10;;;;;;5025748;28;20620;-51
2021/06/12 00:05:43;;;;;;;8.10;7.37;;;23.00;78.60;;;;;;5009960;28;20747;-51
2021/06/12 00:08:11;;;;;;;7.40;6.60;;;22.90;78.90;;;;;;5010321;28;21024;-51
2021/06/12 00:10:39;;;;;;;8.03;7.33;;;22.90;79.30;;;;;;5010770;28;20624;-52
2021/06/12 00:13:06;;;;;;;7.40;6.80;;;22.90;79.50;;;;;;5021330;28;20722;-51
2021/06/12 00:15:32;;;;;;;8.10;7.50;;;22.90;79.60;;;;;;5031642;28;20667;-52
2021/06/12 00:17:59;;;;;;;8.23;7.63;;;22.90;80.10;;;;;;5031477;28;21207;-51
2021/06/12 00:20:28;;;;;;;9.30;8.50;;;22.90;80.10;;;;;;5031365;28;20615;-52
2021/06/12 00:22:54;;;;;;;11.30;8.17;;;22.90;80.30;;;;;;5030931;28;20635;-52
2021/06/12 00:25:24;;;;;;;7.70;7.10;;;23.00;81.30;;;;;;5031048;28;20651;-51
2021/06/12 00:27:51;;;;;;;8.77;8.00;;;23.00;80.80;;;;;;5030144;28;20692;-51
2021/06/12 00:30:18;;;;;;;8.40;7.70;;;22.90;80.60;;;;;;5031307;28;21200;-51
2021/06/12 00:32:44;;;;;;;7.80;7.10;;;22.90;81.00;;;;;;5030944;28;20631;-51
2021/06/12 00:35:12;;;;;;;9.23;8.33;;;22.80;80.80;;;;;;5031274;28;20659;-51
2021/06/12 00:37:39;;;;;;;9.13;7.97;;;22.90;81.30;;;;;;5030372;28;20651;-52
2021/06/12 00:40:07;;;;;;;8.43;7.73;;;22.90;82.50;;;;;;5031220;28;20630;-55
2021/06/12 00:42:37;;;;;;;8.03;7.43;;;22.80;81.70;;;;;;5030306;28;20627;-54
2021/06/12 00:45:05;;;;;;;9.17;8.20;;;22.80;81.70;;;;;;5030980;28;20743;-55
2021/06/12 00:47:32;;;;;;;7.43;6.83;;;22.90;81.50;;;;;;5030765;28;20961;-55
2021/06/12 00:49:59;;;;;;;8.40;7.67;;;22.90;81.30;;;;;;5030674;28;20631;-55
2021/06/12 00:52:26;;;;;;;8.23;7.53;;;22.90;81.20;;;;;;5030103;28;20658;-54
2021/06/12 00:54:53;;;;;;;10.50;9.50;;;22.90;81.00;;;;;;5030695;28;20667;-55
2021/06/12 00:57:20;;;;;;;8.70;8.00;;;22.90;80.80;;;;;;5030235;28;20729;-56
2021/06/12 00:59:48;;;;;;;7.97;7.27;;;22.90;80.80;;;;;;5028595;28;21053;-54
2021/06/12 01:02:15;;;;;;;8.23;6.87;;;22.80;80.60;;;;;;5029288;28;20626;-54
2021/06/12 01:04:41;;;;;;;8.63;7.90;;;22.80;80.40;;;;;;5029426;28;21015;-54
2021/06/12 01:07:08;;;;;;;11.40;7.30;;;22.70;80.60;;;;;;5029659;28;20634;-54
2021/06/12 01:09:35;;;;;;;8.20;7.60;;;22.70;80.70;;;;;;5030154;28;21179;-54
2021/06/12 01:12:05;;;;;;;8.30;7.70;;;22.60;80.80;;;;;;5029825;28;20700;-52
2021/06/12 01:14:33;;;;;;;8.67;8.07;;;22.50;81.10;;;;;;5030421;28;20689;-53
2021/06/12 01:17:06;;;;;;;10.40;8.77;;;22.50;81.30;;;;;;5029408;28;20708;-53
2021/06/12 01:19:44;;;;;;;7.97;7.27;;;22.50;81.80;;;;;;5030496;28;20634;-54
2021/06/12 01:22:13;;;;;;;8.03;7.33;;;22.50;82.10;;;;;;5030484;28;20690;-52
2021/06/12 01:25:04;;;;;;;7.70;7.17;;;22.50;82.30;;;;;;5029068;28;21297;-52
2021/06/12 01:27:54;;;;;;;7.13;6.53;;;22.60;82.30;;;;;;5029758;28;21166;-53
2021/06/12 01:30:22;;;;;;;7.90;7.23;;;22.60;82.30;;;;;;5030335;28;20681;-52
2021/06/12 01:32:50;;;;;;;9.87;7.80;;;22.60;82.40;;;;;;5030410;28;20661;-52
2021/06/12 01:35:20;;;;;;;7.70;7.10;;;22.60;82.30;;;;;;5030106;28;20785;-54
2021/06/12 01:37:47;;;;;;;9.43;8.43;;;22.60;82.20;;;;;;5030058;28;20709;-54
2021/06/12 01:40:14;;;;;;;7.20;6.67;;;22.60;82.20;;;;;;5029951;28;20627;-53
2021/06/12 01:42:43;;;;;;;7.20;6.60;;;22.60;82.40;;;;;;5030373;28;20665;-53
2021/06/12 01:45:10;;;;;;;8.53;7.27;;;22.60;82.60;;;;;;5030432;28;21219;-53
2021/06/12 01:47:38;;;;;;;8.23;7.50;;;22.60;82.60;;;;;;5029945;28;20690;-53
2021/06/12 01:50:06;;;;;;;7.53;6.93;;;22.60;82.70;;;;;;5030391;28;20676;-53
2021/06/12 01:52:33;;;;;;;7.97;7.30;;;22.60;82.80;;;;;;5030040;28;20634;-54
2021/06/12 01:55:00;;;;;;;7.13;6.60;;;22.60;82.90;;;;;;5030677;28;20670;-54
2021/06/12 01:57:26;;;;;;;8.20;7.40;;;22.60;83.20;;;;;;5030176;28;21280;-54
2021/06/12 01:59:53;;;;;;;8.23;7.53;;;22.50;83.30;;;;;;5030300;28;20658;-54
2021/06/12 02:02:20;;;;;;;13.80;8.03;;;22.50;83.40;;;;;;5030492;28;20623;-54
2021/06/12 02:04:49;;;;;;;8.13;7.43;;;22.50;83.60;;;;;;5034161;28;20677;-54
2021/06/12 02:07:16;;;;;;;7.07;6.53;;;22.60;83.80;;;;;;5033830;28;20692;-54
2021/06/12 02:09:43;;;;;;;8.57;7.77;;;22.60;84.00;;;;;;5034584;28;20631;-53
2021/06/12 02:12:10;;;;;;;8.10;7.40;;;22.60;83.90;;;;;;5034382;28;20659;-54
2021/06/12 02:14:37;;;;;;;9.03;8.27;;;22.60;84.00;;;;;;5033962;28;21218;-54
2021/06/12 02:17:04;;;;;;;9.37;8.20;;;22.60;84.00;;;;;;5032394;28;21215;-54
2021/06/12 02:19:31;;;;;;;8.27;7.60;;;22.60;83.90;;;;;;5033325;28;21034;-54
2021/06/12 02:21:59;;;;;;;8.93;8.17;;;22.70;84.00;;;;;;5034326;28;20672;-53
2021/06/12 02:24:25;;;;;;;8.40;7.57;;;22.70;84.00;;;;;;5033908;28;21167;-54
2021/06/12 02:26:53;;;;;;;8.30;7.50;;;22.70;84.00;;;;;;5033575;28;20627;-54
2021/06/12 02:29:20;;;;;;;7.97;7.37;;;22.60;84.10;;;;;;5033772;28;21152;-54
2021/06/12 02:31:49;;;;;;;7.90;7.30;;;22.60;84.30;;;;;;5033560;28;20627;-54
2021/06/12 02:34:15;;;;;;;9.40;8.60;;;22.60;84.60;;;;;;5033891;28;20635;-54
2021/06/12 02:36:42;;;;;;;8.90;8.20;;;22.60;84.80;;;;;;5033112;28;20642;-54
2021/06/12 02:39:10;;;;;;;9.30;8.60;;;22.60;85.10;;;;;;5033785;28;20740;-54
2021/06/12 02:41:37;;;;;;;8.70;7.97;;;22.50;85.30;;;;;;5033425;28;20626;-54
2021/06/12 02:44:04;;;;;;;7.90;7.20;;;22.50;85.00;;;;;;5033645;28;20623;-54
2021/06/12 02:46:32;;;;;;;8.07;7.47;;;22.40;85.20;;;;;;5033552;28;20703;-54
2021/06/12 02:48:59;;;;;;;7.20;6.60;;;22.30;85.60;;;;;;5033473;28;20642;-54
2021/06/12 02:51:26;;;;;;;7.50;6.90;;;22.30;85.90;;;;;;5033317;28;20673;-55
2021/06/12 02:53:53;;;;;;;8.70;7.70;;;22.20;86.20;;;;;;5033497;28;20657;-55
2021/06/12 02:56:21;;;;;;;11.60;8.33;;;22.20;86.50;;;;;;5033066;28;20716;-54
2021/06/12 02:58:48;;;;;;;7.67;7.07;;;22.20;86.70;;;;;;5033074;28;20651;-55
2021/06/12 03:01:14;;;;;;;8.03;7.23;;;22.20;86.70;;;;;;5033069;28;20642;-55
2021/06/12 03:03:41;;;;;;;7.57;6.87;;;22.20;87.00;;;;;;5033087;28;21180;-55
2021/06/12 03:06:08;;;;;;;8.43;7.60;;;22.20;87.20;;;;;;5033264;28;21214;-54
2021/06/12 03:08:38;;;;;;;7.93;7.33;;;22.20;87.40;;;;;;5033267;28;20660;-55
2021/06/12 03:11:06;;;;;;;9.60;8.70;;;22.20;87.40;;;;;;5033016;28;20749;-55
2021/06/12 03:13:34;;;;;;;11.30;7.50;;;22.20;87.50;;;;;;5032964;28;20623;-54
2021/06/12 03:16:01;;;;;;;10.93;8.17;;;22.20;87.50;;;;;;5030509;28;21281;-54
2021/06/12 03:18:27;;;;;;;9.00;7.60;;;22.20;87.50;;;;;;5033082;28;21242;-54
2021/06/12 03:20:55;;;;;;;9.13;7.20;;;22.20;87.50;;;;;;5033079;28;20619;-54
2021/06/12 03:23:22;;;;;;;12.10;9.27;;;22.10;87.60;;;;;;5032489;28;20692;-54
2021/06/12 03:25:49;;;;;;;10.23;9.23;;;22.10;87.70;;;;;;5032592;28;20681;-54
2021/06/12 03:28:15;;;;;;;10.30;8.90;;;22.10;87.80;;;;;;5031707;28;20635;-54
2021/06/12 03:30:43;;;;;;;8.17;7.57;;;22.10;87.80;;;;;;5033008;28;20690;-54
2021/06/12 03:33:10;;;;;;;8.87;7.97;;;22.10;87.90;;;;;;5032785;28;21213;-54
2021/06/12 03:35:37;;;;;;;9.30;7.57;;;22.10;87.90;;;;;;5032628;28;20685;-56
2021/06/12 03:38:04;;;;;;;9.30;8.40;;;22.10;87.90;;;;;;5032196;28;21070;-53
2021/06/12 03:40:31;;;;;;;9.57;8.80;;;22.10;87.90;;;;;;5032505;28;21171;-54
2021/06/12 03:42:58;;;;;;;8.40;7.70;;;22.10;88.00;;;;;;5030795;28;20626;-54
2021/06/12 03:45:25;;;;;;;7.80;7.13;;;22.10;87.80;;;;;;5031809;28;21029;-53
2021/06/12 03:47:53;;;;;;;10.27;7.80;;;22.20;87.80;;;;;;5032456;28;20627;-53
2021/06/12 03:50:20;;;;;;;7.77;7.10;;;22.20;86.80;;;;;;5032209;28;20638;-53
2021/06/12 03:52:47;;;;;;;8.37;7.50;;;22.20;86.10;;;;;;5030788;28;20715;-53
2021/06/12 03:55:13;;;;;;;8.20;7.40;;;22.20;85.40;;;;;;5032302;28;20659;-53
2021/06/12 03:57:40;;;;;;;7.00;6.37;;;22.20;84.80;;;;;;5031658;28;20708;-53
2021/06/12 04:00:08;;;;;;;8.60;7.90;;;22.30;84.50;;;;;;5030651;28;20681;-53
2021/06/12 04:02:35;;;;;;;7.73;7.13;;;22.30;84.30;;;;;;5032234;28;21183;-54
2021/06/12 04:05:03;;;;;;;8.10;7.40;;;22.20;84.30;;;;;;5031981;28;21261;-54
2021/06/12 04:07:30;;;;;;;9.60;7.93;;;22.20;84.20;;;;;;5031827;28;20654;-54
2021/06/12 04:09:57;;;;;;;8.30;7.60;;;22.20;84.30;;;;;;5032084;28;20625;-54
2021/06/12 04:12:24;;;;;;;8.30;7.67;;;22.20;84.60;;;;;;5031942;28;21096;-54
2021/06/12 04:14:50;;;;;;;10.03;8.60;;;22.30;84.70;;;;;;5030324;28;20662;-54
2021/06/12 04:17:17;;;;;;;10.57;9.70;;;22.30;84.80;;;;;;5031619;28;20688;-54
2021/06/12 04:19:44;;;;;;;9.63;8.87;;;22.30;84.80;;;;;;5031576;28;20698;-55
2021/06/12 04:22:12;;;;;;;13.17;11.70;;;22.30;84.80;;;;;;5032088;28;20794;-55
2021/06/12 04:24:39;;;;;;;9.27;8.40;;;22.30;85.00;;;;;;5031621;28;21008;-54
2021/06/12 04:27:06;;;;;;;9.73;8.80;;;22.30;85.20;;;;;;5031118;28;21187;-54
2021/06/12 04:29:33;;;;;;;11.37;10.30;;;22.30;85.50;;;;;;5031575;28;20623;-55
2021/06/12 04:32:00;;;;;;;11.00;10.10;;;22.40;85.80;;;;;;5031222;28;20639;-54
2021/06/12 04:34:26;;;;;;;9.20;8.40;;;22.30;86.50;;;;;;5030993;28;20643;-55
2021/06/12 04:36:53;;;;;;;10.30;9.40;;;22.30;86.10;;;;;;5030145;28;20670;-55
2021/06/12 04:39:21;;;;;;;9.80;9.00;;;22.30;86.60;;;;;;5031231;28;20655;-55
2021/06/12 04:41:48;;;;;;;10.20;9.40;;;22.20;86.80;;;;;;5031455;28;20709;-55
2021/06/12 04:44:15;;;;;;;9.23;8.30;;;22.20;87.10;;;;;;5031340;28;20998;-54
2021/06/12 04:46:42;;;;;;;8.87;8.13;;;22.20;87.50;;;;;;5030985;28;20693;-54
2021/06/12 04:49:09;;;;;;;8.93;8.33;;;22.20;87.80;;;;;;5031593;28;20696;-54
2021/06/12 04:51:36;;;;;;;8.73;7.93;;;22.20;88.00;;;;;;5031169;28;20631;-55
2021/06/12 04:54:03;;;;;;;9.97;8.93;;;22.20;88.10;;;;;;5030911;28;20692;-54
2021/06/12 04:56:31;;;;;;;7.87;7.27;;;22.20;88.00;;;;;;5030899;28;20685;-55
2021/06/12 04:58:58;;;;;;;9.33;8.60;;;22.30;88.00;;;;;;5030627;28;20709;-54
2021/06/12 05:01:25;;;;;;;10.37;9.67;;;22.40;88.10;;;;;;5031357;28;20630;-55
2021/06/12 05:03:51;;;;;;;9.90;8.80;;;22.40;87.60;;;;;;5031052;28;20627;-55
2021/06/12 05:06:18;;;;;;;8.57;7.87;;;22.40;87.30;;;;;;5030800;28;20655;-55
2021/06/12 05:08:45;;;;;;;7.77;7.27;;;22.30;87.40;;;;;;5030968;28;20635;-55
2021/06/12 05:11:12;;;;;;;9.20;8.40;;;22.30;87.70;;;;;;5030764;28;20681;-55
2021/06/12 05:13:40;;;;;;;8.87;8.10;;;22.30;87.70;;;;;;5030710;28;20665;-53
2021/06/12 05:16:07;;;;;;;8.27;7.67;;;22.40;87.50;;;;;;5030635;28;21199;-53
2021/06/12 05:18:39;;;;;;;8.07;6.80;;;22.40;87.50;;;;;;5030595;28;20788;-54
2021/06/12 05:21:07;;;;;;;9.50;6.53;;;22.40;87.50;;;;;;5030552;28;20722;-55
2021/06/12 05:23:34;;;;;;;8.30;6.77;;;22.40;87.20;;;;;;5031014;28;20966;-53
2021/06/12 05:26:01;;;;;;;6.40;5.50;;;22.40;86.60;;;;;;5030146;28;20674;-53
2021/06/12 05:28:28;;;;;;;8.00;7.03;;;22.40;86.20;;;;;;5030721;28;20669;-53
2021/06/12 05:30:56;;;;;;;6.20;5.60;;;22.30;86.20;;;;;;5030650;28;20703;-53
2021/06/12 05:33:23;;;;;;;7.63;6.13;;;22.30;86.50;;;;;;5030868;28;20718;-53
2021/06/12 05:35:50;;;;;;;6.83;6.10;;;22.30;86.70;;;;;;5030654;28;20734;-53
2021/06/12 05:38:17;;;;;;;7.30;6.70;;;22.30;87.00;;;;;;5030318;28;20731;-54
2021/06/12 05:40:44;;;;;;;7.40;6.60;;;22.30;86.60;;;;;;5030607;28;20627;-54
2021/06/12 05:43:10;;;;;;;6.50;5.30;;;22.30;86.60;;;;;;5030447;28;20653;-54
2021/06/12 05:45:37;;;;;;;6.43;5.83;;;22.30;86.80;;;;;;5029462;28;21023;-54
2021/06/12 05:48:06;;;;;;;6.53;5.27;;;22.30;86.90;;;;;;5030390;28;20705;-54
2021/06/12 05:50:33;;;;;;;6.00;5.50;;;22.40;86.70;;;;;;5030261;28;20657;-55
2021/06/12 05:53:00;;;;;;;6.07;5.60;;;22.40;86.20;;;;;;5030121;28;20684;-55
2021/06/12 05:55:27;;;;;;;5.70;5.30;;;22.40;86.30;;;;;;5012340;28;20652;-55
2021/06/12 05:57:54;;;;;;;5.90;5.30;;;22.40;86.10;;;;;;5010438;28;20686;-54
2021/06/12 06:00:21;;;;;;;33.23;7.03;;;22.40;86.00;;;;;;5010942;28;20678;-53
2021/06/12 06:02:48;;;;;;;7.13;6.43;;;22.40;86.50;;;;;;5019848;28;20619;-54
2021/06/12 06:05:16;;;;;;;7.10;6.40;;;22.30;86.70;;;;;;5016934;28;21009;-54
2021/06/12 06:07:43;;;;;;;6.87;6.20;;;22.30;86.60;;;;;;5016873;28;20743;-53
2021/06/12 06:10:10;;;;;;;6.83;6.23;;;22.30;87.00;;;;;;5016012;28;21101;-52
2021/06/12 06:12:37;;;;;;;6.67;6.07;;;22.30;86.80;;;;;;5010446;28;20802;-55
2021/06/12 06:15:04;;;;;;;6.63;6.10;;;22.30;87.20;;;;;;5011208;28;21298;-53
2021/06/12 06:17:31;;;;;;;8.80;7.37;;;22.30;87.60;;;;;;5021103;28;21081;-54
2021/06/12 06:19:57;;;;;;;7.60;6.90;;;22.30;87.60;;;;;;5010264;28;20747;-54
2021/06/12 06:22:26;;;;;;;5.73;5.33;;;22.40;87.60;;;;;;5016211;28;20987;-54
2021/06/12 06:24:52;;;;;;;6.20;5.70;;;22.40;87.80;;;;;;5029524;28;20658;-53
2021/06/12 06:27:19;;;;;;;8.90;5.60;;;22.40;87.70;;;;;;5010199;28;20994;-54
2021/06/12 06:29:48;;;;;;;6.03;5.43;;;22.40;87.60;;;;;;5010323;28;20631;-54
2021/06/12 06:32:15;;;;;;;7.83;6.10;;;22.50;87.50;;;;;;5017025;28;20631;-55
2021/06/12 06:34:42;;;;;;;7.87;7.17;;;22.50;87.80;;;;;;5025417;28;20643;-53
2021/06/12 06:37:08;;;;;;;6.27;5.70;;;22.50;87.40;;;;;;5026139;28;20688;-55
2021/06/12 06:39:37;;;;;;;6.80;6.20;;;22.50;87.40;;;;;;5021166;28;20659;-54
2021/06/12 06:42:05;;;;;;;8.00;7.40;;;22.50;88.40;;;;;;5030352;28;20631;-54
2021/06/12 06:44:36;;;;;;;6.47;5.90;;;22.60;87.40;;;;;;5011428;28;20631;-54
2021/06/12 06:47:03;;;;;;;7.20;6.50;;;22.60;87.00;;;;;;5010260;28;21037;-55
2021/06/12 06:49:34;;;;;;;7.40;6.73;;;22.70;87.30;;;;;;5010968;28;20620;-56
2021/06/12 06:52:01;;;;;;;7.47;6.73;;;22.80;87.00;;;;;;5021613;28;20627;-54
2021/06/12 06:54:28;;;;;;;10.43;9.23;;;22.80;86.80;;;;;;5033008;28;20680;-55
2021/06/12 06:56:56;;;;;;;7.30;6.70;;;22.90;86.90;;;;;;5031597;28;20700;-54
2021/06/12 06:59:23;;;;;;;8.63;7.83;;;23.00;86.80;;;;;;5016398;28;20729;-54
2021/06/12 07:01:50;;;;;;;6.87;6.20;;;23.10;86.60;;;;;;5013912;28;20805;-54
2021/06/12 07:04:17;;;;;;;8.40;7.70;;;23.10;86.20;;;;;;5013292;28;20705;-54
2021/06/12 07:06:43;;;;;;;8.60;7.77;;;23.20;86.10;;;;;;5012913;28;21043;-54
2021/06/12 07:09:10;;;;;;;9.47;6.90;;;23.30;86.10;;;;;;5013152;28;20634;-54
2021/06/12 07:11:37;;;;;;;6.70;6.00;;;23.30;85.80;;;;;;5028822;28;20787;-55
2021/06/12 07:14:05;;;;;;;8.50;7.70;;;23.30;86.00;;;;;;5026112;28;20631;-55
2021/06/12 07:16:32;;;;;;;9.37;7.13;;;23.40;86.10;;;;;;5016040;28;20786;-55
2021/06/12 07:18:59;;;;;;;8.37;7.57;;;23.40;85.20;;;;;;5022862;28;20933;-55
2021/06/12 07:21:26;;;;;;;9.80;7.60;;;23.40;84.40;;;;;;5020499;28;20634;-55
2021/06/12 07:23:53;;;;;;;8.80;8.00;;;23.40;84.40;;;;;;5015058;28;20668;-55
2021/06/12 07:26:20;;;;;;;7.80;7.00;;;23.40;84.70;;;;;;5030877;28;20754;-55
2021/06/12 07:28:47;;;;;;;8.20;7.50;;;23.40;84.90;;;;;;5032629;28;20623;-56
2021/06/12 07:31:15;;;;;;;10.33;8.17;;;23.40;85.00;;;;;;5029175;28;20628;-56
2021/06/12 07:33:42;;;;;;;8.30;6.90;;;23.40;85.30;;;;;;5013026;28;20628;-55
2021/06/12 07:36:08;;;;;;;8.23;7.40;;;23.40;86.00;;;;;;5012496;28;20679;-53
2021/06/12 07:38:35;;;;;;;8.23;6.30;;;23.40;85.90;;;;;;5012405;28;20623;-55
2021/06/12 07:41:03;;;;;;;7.73;7.03;;;23.50;86.20;;;;;;5029258;28;20635;-55
2021/06/12 07:43:29;;;;;;;7.87;6.97;;;23.60;85.50;;;;;;5032479;28;21171;-54
2021/06/12 07:45:56;;;;;;;9.07;8.17;;;23.80;84.60;;;;;;5031786;28;20662;-54
2021/06/12 07:48:24;;;;;;;10.67;8.80;;;23.90;83.80;;;;;;5032353;28;20634;-53
2021/06/12 07:50:51;;;;;;;10.67;7.80;;;24.10;83.40;;;;;;5032025;28;21245;-52
2021/06/12 07:53:19;;;;;;;8.83;6.83;;;24.30;82.70;;;;;;5032447;28;20626;-54
2021/06/12 07:55:46;;;;;;;8.93;7.47;;;24.40;82.20;;;;;;5032384;28;20757;-54
2021/06/12 07:58:13;;;;;;;8.10;7.40;;;24.50;82.30;;;;;;5032069;28;21038;-54
2021/06/12 08:00:40;;;;;;;6.83;6.23;;;24.60;82.50;;;;;;5031645;28;20697;-54
2021/06/12 08:03:06;;;;;;;10.40;6.80;;;24.70;81.80;;;;;;5032521;28;20631;-54
2021/06/12 08:05:35;;;;;;;9.20;8.27;;;24.90;81.40;;;;;;5030304;28;20655;-54
2021/06/12 08:08:02;;;;;;;9.53;7.90;;;25.10;80.10;;;;;;5031566;28;20631;-54
2021/06/12 08:10:28;;;;;;;8.83;7.87;;;25.10;78.70;;;;;;5032247;28;20983;-55
2021/06/12 08:12:55;;;;;;;14.17;9.20;;;25.10;78.40;;;;;;5031848;28;20631;-54
2021/06/12 08:15:23;;;;;;;8.50;7.70;;;25.10;79.00;;;;;;5015302;28;20656;-55
2021/06/12 08:17:50;;;;;;;9.40;7.37;;;25.20;78.30;;;;;;5012971;28;20655;-54
2021/06/12 08:20:17;;;;;;;10.17;7.60;;;25.30;78.00;;;;;;5023035;28;20644;-54
2021/06/12 08:22:46;;;;;;;9.80;8.80;;;25.40;77.60;;;;;;5015905;28;20711;-54
2021/06/12 08:25:13;;;;;;;8.17;7.37;;;25.50;76.30;;;;;;5015962;28;21191;-54
2021/06/12 08:27:39;;;;;;;8.70;8.00;;;25.40;76.20;;;;;;5014319;28;20628;-54
2021/06/12 08:30:07;;;;;;;9.77;8.30;;;25.30;76.80;;;;;;5018892;28;20649;-53
2021/06/12 08:32:34;;;;;;;12.53;9.43;;;25.30;77.10;;;;;;5031638;28;20631;-53
2021/06/12 08:35:01;;;;;;;14.27;10.53;;;25.30;76.90;;;;;;5031621;28;20654;-54
2021/06/12 08:37:28;;;;;;;11.83;10.57;;;25.30;76.50;;;;;;5030844;28;20995;-53
2021/06/12 08:39:56;;;;;;;11.13;10.03;;;25.20;76.10;;;;;;5026477;28;21246;-54
2021/06/12 08:42:23;;;;;;;12.17;10.83;;;25.10;76.40;;;;;;5023918;28;20623;-53
2021/06/12 08:44:50;;;;;;;12.37;11.13;;;25.00;76.40;;;;;;5030694;28;20720;-54
2021/06/12 08:47:18;;;;;;;10.37;9.37;;;24.90;78.10;;;;;;5011357;28;20624;-53
2021/06/12 08:49:45;;;;;;;11.37;10.20;;;24.90;78.30;;;;;;5011288;28;20628;-54
2021/06/12 08:52:12;;;;;;;11.00;10.00;;;24.80;78.80;;;;;;5011359;28;20689;-55
2021/06/12 08:54:41;;;;;;;10.10;9.10;;;24.90;79.00;;;;;;5011384;28;21079;-55
2021/06/12 08:57:10;;;;;;;12.43;9.90;;;24.90;78.80;;;;;;5011424;28;20710;-55
2021/06/12 08:59:37;;;;;;;11.13;10.03;;;25.00;78.50;;;;;;5026671;28;20691;-55
2021/06/12 09:02:04;;;;;;;11.03;9.97;;;25.00;78.60;;;;;;5027567;28;20631;-54
2021/06/12 09:04:32;;;;;;;9.30;8.43;;;25.00;77.30;;;;;;5029962;28;20673;-54
2021/06/12 09:07:18;;;;;;;10.40;9.30;;;24.90;77.90;;;;;;5030039;28;21164;-54
2021/06/12 09:09:45;;;;;;;8.53;7.73;;;24.90;79.00;;;;;;5030075;28;20630;-54
2021/06/12 09:12:13;;;;;;;9.07;8.17;;;24.90;79.70;;;;;;5029910;28;20627;-55
2021/06/12 09:14:40;;;;;;;8.70;7.87;;;25.00;80.20;;;;;;5030426;28;20663;-54
2021/06/12 09:17:07;;;;;;;9.60;8.70;;;25.10;79.30;;;;;;5029272;28;20626;-54
2021/06/12 09:19:39;;;;;;;10.07;9.07;;;25.20;76.90;;;;;;5030262;28;20699;-50
2021/06/12 09:22:06;;;;;;;9.57;8.63;;;25.20;77.10;;;;;;5029598;28;20642;-51
2021/06/12 09:24:35;;;;;;;9.50;8.43;;;25.30;76.90;;;;;;5029653;28;20638;-50
2021/06/12 09:27:03;;;;;;;12.10;11.00;;;25.40;76.40;;;;;;5029940;28;20677;-50
2021/06/12 09:29:35;;;;;;;10.40;9.40;;;25.60;75.70;;;;;;5030006;28;21038;-51
2021/06/12 09:32:02;;;;;;;10.33;8.87;;;25.70;75.30;;;;;;5030285;28;20808;-51
2021/06/12 09:34:29;;;;;;;11.37;8.60;;;25.90;75.00;;;;;;5029228;28;20704;-51
2021/06/12 09:36:56;;;;;;;7.93;7.13;;;26.10;73.50;;;;;;5028049;28;20627;-50
2021/06/12 09:39:24;;;;;;;6.47;5.87;;;26.20;71.00;;;;;;5012362;28;20877;-50
2021/06/12 09:41:52;;;;;;;7.70;7.00;;;26.20;69.00;;;;;;5011652;28;20631;-50
2021/06/12 09:44:32;;;;;;;4.93;4.53;;;26.10;69.00;;;;;;5029995;28;20684;-51
2021/06/12 09:47:01;;;;;;;6.73;6.07;;;26.10;67.90;;;;;;5009907;28;21219;-50
2021/06/12 09:49:34;;;;;;;5.83;5.33;;;26.00;67.20;;;;;;5009836;28;20624;-51
2021/06/12 09:52:07;;;;;;;7.87;6.30;;;25.90;67.40;;;;;;5010004;28;20631;-50
2021/06/12 09:54:35;;;;;;;6.33;5.73;;;25.80;67.70;;;;;;5009949;28;20651;-50
2021/06/12 09:57:01;;;;;;;6.90;6.30;;;25.80;68.50;;;;;;5014075;28;20631;-51
2021/06/12 09:59:28;;;;;;;6.97;6.27;;;25.80;69.00;;;;;;5009921;28;20725;-51
2021/06/12 10:01:55;;;;;;;6.17;5.57;;;25.80;68.40;;;;;;5025184;28;20753;-52
2021/06/12 10:04:23;;;;;;;7.53;6.73;;;25.80;67.80;;;;;;5028601;28;20701;-52
2021/06/12 10:06:50;;;;;;;7.50;6.80;;;25.80;68.80;;;;;;5028623;28;20724;-51
2021/06/12 10:09:17;;;;;;;8.77;7.97;;;25.90;68.40;;;;;;5029381;28;20761;-53
2021/06/12 10:11:45;;;;;;;7.03;6.43;;;25.90;68.80;;;;;;5029327;28;20627;-52
2021/06/12 10:14:12;;;;;;;5.83;5.30;;;25.80;68.70;;;;;;5029542;28;20673;-51
2021/06/12 10:16:40;;;;;;;10.20;6.10;;;25.80;68.40;;;;;;5025520;28;21214;-52
2021/06/12 10:19:07;;;;;;;6.00;5.30;;;25.80;68.30;;;;;;5029205;28;21272;-51
2021/06/12 10:21:35;;;;;;;7.37;6.23;;;25.70;68.70;;;;;;5028952;28;20627;-51
2021/06/12 10:24:06;;;;;;;6.03;5.53;;;25.70;69.00;;;;;;5025498;28;20700;-52
2021/06/12 10:26:33;;;;;;;5.83;5.20;;;25.70;69.30;;;;;;5030561;28;20655;-52
2021/06/12 10:29:00;;;;;;;6.37;5.40;;;25.70;69.30;;;;;;5033097;28;20654;-51
2021/06/12 10:31:28;;;;;;;4.43;4.10;;;25.70;69.90;;;;;;5033110;28;20686;-51
2021/06/12 10:33:55;;;;;;;5.33;4.77;;;25.80;69.50;;;;;;5028818;28;20657;-52
2021/06/12 10:36:23;;;;;;;5.17;4.87;;;25.90;68.10;;;;;;5030455;28;20666;-52
2021/06/12 10:38:52;;;;;;;4.67;4.17;;;25.90;67.10;;;;;;5033125;28;20623;-51
2021/06/12 10:41:20;;;;;;;3.17;2.93;;;25.90;67.30;;;;;;5033007;28;20770;-51
2021/06/12 10:43:47;;;;;;;4.23;3.93;;;25.90;66.30;;;;;;5032712;28;20623;-52
2021/06/12 10:46:15;;;;;;;3.97;3.63;;;25.90;66.20;;;;;;5033001;28;20697;-52
2021/06/12 10:48:43;;;;;;;5.73;4.37;;;25.90;66.40;;;;;;5032693;28;20646;-51
2021/06/12 10:51:11;;;;;;;2.63;2.43;;;26.00;66.80;;;;;;5019452;28;20618;-52
2021/06/12 10:53:38;;;;;;;2.57;2.37;;;26.00;63.10;;;;;;5011593;28;20643;-52
2021/06/12 10:56:07;;;;;;;4.13;3.17;;;26.00;63.50;;;;;;5013419;28;20711;-52
2021/06/12 10:58:45;;;;;;;2.20;2.00;;;26.10;64.10;;;;;;5012933;28;20749;-52
2021/06/12 11:01:16;;;;;;;3.70;2.30;;;26.20;60.40;;;;;;5031033;28;20662;-52
2021/06/12 11:03:57;;;;;;;4.43;2.63;;;26.20;61.00;;;;;;5033365;28;20631;-52
2021/06/12 11:06:40;;;;;;;2.53;2.33;;;26.20;60.80;;;;;;5031765;28;20684;-51
2021/06/12 11:09:39;;;;;;;2.50;2.27;;;26.30;60.10;;;;;;5032516;28;20720;-52
2021/06/12 11:12:34;;;;;;;3.43;3.00;;;26.40;60.40;;;;;;5031905;28;20991;-52
2021/06/12 11:15:06;;;;;;;4.10;2.30;;;26.50;59.90;;;;;;5031506;28;21214;-52
2021/06/12 11:17:33;;;;;;;1.83;1.33;;;26.70;59.20;;;;;;5016240;28;20632;-52
2021/06/12 11:20:28;;;;;;;1.33;1.23;;;26.80;55.70;;;;;;5014225;28;21300;-51
2021/06/12 11:22:56;;;;;;;1.63;1.50;;;26.80;54.70;;;;;;5013173;28;20631;-49
2021/06/12 11:25:50;;;;;;;1.70;1.20;;;26.70;55.00;;;;;;5026966;28;20658;-51
2021/06/12 11:28:32;;;;;;;3.53;1.63;;;26.60;54.90;;;;;;5013776;28;21234;-51
2021/06/12 11:31:33;;;;;;;3.23;1.20;;;26.60;55.30;;;;;;5021519;28;20619;-51
2021/06/12 11:34:20;;;;;;;3.70;2.33;;;26.60;53.80;;;;;;4971619;28;20666;-52
2021/06/12 11:36:49;;;;;;;1.93;1.40;;;26.60;53.50;;;;;;5006608;28;20643;-52
2021/06/12 11:39:15;;;;;;;2.20;0.90;;;26.60;53.60;;;;;;5012128;28;20701;-52
2021/06/12 11:41:42;;;;;;;1.60;1.50;;;26.50;53.10;;;;;;5013103;28;20746;-52
2021/06/12 11:44:10;;;;;;;2.27;1.60;;;26.40;53.70;;;;;;5023431;28;20622;-52
2021/06/12 11:46:38;;;;;;;2.20;1.00;;;26.40;54.00;;;;;;5033365;28;20662;-53
2021/06/12 11:49:07;;;;;;;1.93;1.00;;;26.50;53.70;;;;;;5033525;28;20680;-54
2021/06/12 11:51:34;;;;;;;2.03;0.90;;;26.50;52.90;;;;;;5033479;28;20754;-53
2021/06/12 11:54:10;;;;;;;3.50;1.03;;;26.50;52.40;;;;;;5033654;28;20734;-52
2021/06/12 11:56:37;;;;;;;0.80;0.80;;;26.60;52.60;;;;;;5033465;28;20658;-51
2021/06/12 11:59:05;;;;;;;1.83;0.90;;;26.70;52.70;;;;;;5033899;28;20630;-52
2021/06/12 12:01:58;;;;;;;1.10;0.97;;;26.80;51.60;;;;;;5026885;28;20685;-52
2021/06/12 12:04:25;;;;;;;2.77;1.03;;;26.90;50.30;;;;;;5030136;28;21047;-52
2021/06/12 12:06:53;;;;;;;1.43;1.33;;;27.00;50.90;;;;;;5032079;28;20693;-51
2021/06/12 12:09:24;;;;;;;1.80;1.70;;;27.00;50.50;;;;;;5031804;28;20645;-52
2021/06/12 12:11:52;;;;;;;2.47;1.63;;;26.90;51.10;;;;;;5031895;28;20676;-52
2021/06/12 12:14:25;;;;;;;3.20;3.00;;;27.00;50.20;;;;;;5032184;28;21261;-52
2021/06/12 12:16:52;;;;;;;4.27;2.33;;;27.10;49.10;;;;;;5020940;28;20674;-53
2021/06/12 12:19:20;;;;;;;2.87;2.67;;;27.20;48.90;;;;;;5014124;28;20678;-52
2021/06/12 12:21:49;;;;;;;3.10;2.20;;;27.20;49.60;;;;;;5013239;28;20713;-51
2021/06/12 12:24:16;;;;;;;4.37;2.70;;;27.20;51.00;;;;;;5017682;28;20639;-52
2021/06/12 12:26:52;;;;;;;3.80;2.60;;;27.30;51.20;;;;;;5033121;28;20631;-53
2021/06/12 12:29:22;;;;;;;3.00;2.80;;;27.30;49.90;;;;;;5031876;28;20630;-54
2021/06/12 12:31:49;;;;;;;2.87;2.67;;;27.30;50.90;;;;;;5030536;28;20631;-53
2021/06/12 12:34:27;;;;;;;4.70;3.57;;;27.30;51.50;;;;;;5013330;28;21104;-55
2021/06/12 12:36:55;;;;;;;6.33;2.70;;;27.30;51.50;;;;;;5030970;28;20685;-52
2021/06/12 12:39:22;;;;;;;2.70;2.50;;;27.30;52.00;;;;;;5030042;28;21046;-53
2021/06/12 12:41:52;;;;;;;3.90;2.93;;;27.30;51.90;;;;;;5030839;28;20736;-51
2021/06/12 12:44:19;;;;;;;3.00;2.37;;;27.30;51.80;;;;;;5030457;28;21140;-51
2021/06/12 12:46:46;;;;;;;2.77;2.57;;;27.30;51.80;;;;;;5030680;28;21052;-50
2021/06/12 12:49:17;;;;;;;4.00;3.60;;;27.20;51.90;;;;;;5030320;28;20673;-52
2021/06/12 12:51:50;;;;;;;3.30;2.93;;;27.20;51.90;;;;;;5030708;28;20627;-53